Time;durP1;ratioP1;P1;durP2;ratioP2;P2;SDS_P1;SDS_P2;PMS_P1;PMS_P2;Temp;Humidity;BMP_temperature;BMP_pressure;BME280_temperature;BME280_humidity;BME280_pressure;Samples;Min_cycle;Max_cycle;Signal;HPM_P1;HPM_P2
2022/06/04 00:02:03;;;;;;;;;;;;;;;21.33;70.34;100167.03;10391141;28;20731;-62
2022/06/04 00:07:04;;;;;;;;;;;;;;;21.30;70.53;100172.84;10391561;28;20757;-63
2022/06/04 00:17:25;;;;;;;;;;;;;;;21.26;70.83;100157.16;10390943;28;20307;-62
2022/06/04 00:22:27;;;;;;;;;;;;;;;21.23;70.88;100149.44;10389686;28;20372;-63
2022/06/04 00:27:28;;;;;;;;;;;;;;;21.18;71.20;100142.75;10388569;28;19936;-62
2022/06/04 00:32:29;;;;;;;;;;;;;;;21.14;71.48;100141.47;10387393;28;20629;-62
2022/06/04 00:37:32;;;;;;;;;;;;;;;21.09;71.50;100127.72;10392435;28;19929;-61
2022/06/04 00:42:33;;;;;;;;;;;;;;;21.05;71.79;100118.28;10394076;28;20102;-62
2022/06/04 00:47:36;;;;;;;;;;;;;;;20.98;71.92;100125.53;10394439;28;19929;-63
2022/06/04 00:52:37;;;;;;;;;;;;;;;20.92;71.89;100137.13;10397293;28;20016;-62
2022/06/04 00:58:11;;;;;;;;;;;;;;;20.88;72.13;100133.13;10402515;28;19925;-63
2022/06/04 01:03:19;;;;;;;;;;;;;;;20.67;72.59;100140.19;10395751;28;19935;-64
2022/06/04 01:08:24;;;;;;;;;;;;;;;20.63;72.68;100138.91;10392063;28;19929;-62
2022/06/04 01:13:30;;;;;;;;;;;;;;;20.66;72.39;100138.53;10401780;28;20406;-62
2022/06/04 01:18:31;;;;;;;;;;;;;;;20.66;72.13;100152.06;10392031;28;20319;-63
2022/06/04 01:23:39;;;;;;;;;;;;;;;20.68;71.91;100158.09;10393359;28;20023;-63
2022/06/04 01:28:45;;;;;;;;;;;;;;;20.53;72.90;100160.00;10394010;28;20349;-63
2022/06/04 01:33:56;;;;;;;;;;;;;;;20.56;72.72;100165.03;10390162;28;19971;-63
2022/06/04 01:39:00;;;;;;;;;;;;;;;20.45;73.46;100179.88;10395993;28;19936;-62
2022/06/04 01:44:06;;;;;;;;;;;;;;;20.46;73.49;100171.56;10392450;28;20016;-64
2022/06/04 01:49:10;;;;;;;;;;;;;;;20.49;73.66;100176.59;10388826;28;19935;-63
2022/06/04 01:54:15;;;;;;;;;;;;;;;20.48;74.03;100179.50;10391501;28;20538;-63
2022/06/04 01:59:26;;;;;;;;;;;;;;;20.43;73.93;100166.56;10390529;28;20021;-63
2022/06/04 02:04:31;;;;;;;;;;;;;;;20.35;74.18;100161.25;10393227;28;19939;-63
2022/06/04 02:09:34;;;;;;;;;;;;;;;20.31;74.56;100159.94;10390562;28;19925;-63
2022/06/04 02:14:36;;;;;;;;;;;;;;;20.23;75.05;100160.88;10394744;28;20483;-63
2022/06/04 02:19:37;;;;;;;;;;;;;;;20.17;75.16;100152.72;10393530;28;19959;-64
2022/06/04 02:24:39;;;;;;;;;;;;;;;20.10;75.30;100139.97;10391202;28;20555;-63
2022/06/04 02:29:40;;;;;;;;;;;;;;;20.05;75.13;100128.88;10391572;28;19925;-62
2022/06/04 02:34:53;;;;;;;;;;;;;;;20.01;75.30;100124.88;10392573;28;20365;-64
2022/06/04 02:40:01;;;;;;;;;;;;;;;19.94;75.71;100123.97;10391283;28;19928;-62
2022/06/04 02:45:02;;;;;;;;;;;;;;;19.91;75.66;100129.75;10395841;28;20023;-62
2022/06/04 02:50:16;;;;;;;;;;;;;;;19.72;75.58;100104.94;10398848;28;19929;-61
2022/06/04 02:55:20;;;;;;;;;;;;;;;19.82;76.20;100122.78;10398744;28;20324;-63
2022/06/04 03:00:23;;;;;;;;;;;;;;;19.78;76.60;100119.59;10390189;28;19925;-62
2022/06/04 03:05:26;;;;;;;;;;;;;;;19.74;77.02;100115.53;10390413;28;20244;-62
2022/06/04 03:10:29;;;;;;;;;;;;;;;19.69;77.67;100126.91;10392953;28;20682;-62
2022/06/04 03:15:31;;;;;;;;;;;;;;;19.65;77.85;100113.97;10394985;28;19933;-63
2022/06/04 03:20:32;;;;;;;;;;;;;;;19.61;77.37;100110.81;10393078;28;20027;-63
2022/06/04 03:25:34;;;;;;;;;;;;;;;19.54;77.41;100117.97;10392828;28;19929;-61
2022/06/04 03:30:36;;;;;;;;;;;;;;;19.57;77.03;100131.09;10392524;28;19929;-62
2022/06/04 03:35:38;;;;;;;;;;;;;;;19.55;77.00;100143.94;10390750;28;19947;-63
2022/06/04 03:40:39;;;;;;;;;;;;;;;19.53;77.00;100144.13;10385716;28;19935;-63
2022/06/04 03:45:40;;;;;;;;;;;;;;;19.52;77.33;100130.81;10389324;28;20332;-66
2022/06/04 03:50:42;;;;;;;;;;;;;;;19.53;77.32;100135.19;10390404;28;19996;-63
2022/06/04 03:55:43;;;;;;;;;;;;;;;19.53;77.48;100148.69;10384968;28;19924;-63
2022/06/04 04:00:45;;;;;;;;;;;;;;;19.54;77.46;100150.38;10389899;28;19943;-63
2022/06/04 04:05:47;;;;;;;;;;;;;;;19.56;77.25;100153.72;10386803;28;20008;-63
2022/06/04 04:10:49;;;;;;;;;;;;;;;19.56;77.22;100169.91;10387143;28;20310;-63
2022/06/04 04:15:51;;;;;;;;;;;;;;;19.54;77.33;100170.09;10390524;28;19929;-67
2022/06/04 04:20:52;;;;;;;;;;;;;;;19.58;77.63;100174.09;10401097;28;19925;-63
2022/06/04 04:25:53;;;;;;;;;;;;;;;19.65;76.95;100195.81;10397408;28;20011;-63
2022/06/04 04:30:55;;;;;;;;;;;;;;;19.66;77.48;100207.44;10395947;28;19960;-63
2022/06/04 04:35:56;;;;;;;;;;;;;;;19.69;77.48;100197.09;10401317;28;19936;-63
2022/06/04 04:40:57;;;;;;;;;;;;;;;19.72;77.33;100196.75;10395586;28;19925;-63
2022/06/04 04:46:00;;;;;;;;;;;;;;;19.77;77.35;100188.97;10397291;28;19971;-63
2022/06/04 04:51:01;;;;;;;;;;;;;;;19.85;77.05;100196.13;10394652;27;19982;-63
2022/06/04 04:56:02;;;;;;;;;;;;;;;19.92;76.86;100204.31;10396276;28;19928;-63
2022/06/04 05:01:04;;;;;;;;;;;;;;;20.01;76.91;100205.94;10398127;28;19925;-64
2022/06/04 05:06:05;;;;;;;;;;;;;;;20.12;76.30;100210.84;10394281;28;20530;-63
2022/06/04 05:11:07;;;;;;;;;;;;;;;20.06;76.10;100224.28;10394055;28;19929;-63
2022/06/04 05:16:09;;;;;;;;;;;;;;;20.13;76.48;100236.84;10398619;28;19928;-62
2022/06/04 05:21:30;;;;;;;;;;;;;;;20.25;76.33;100247.19;10396830;28;20023;-63
2022/06/04 05:26:32;;;;;;;;;;;;;;;20.32;76.00;100256.22;10402548;28;20008;-64
2022/06/04 05:31:33;;;;;;;;;;;;;;;20.39;75.27;100267.97;10371616;27;20302;-61
2022/06/04 05:36:36;;;;;;;;;;;;;;;20.51;74.81;100270.19;10391502;28;20526;-61
2022/06/04 05:41:38;;;;;;;;;;;;;;;20.67;74.63;100267.31;10390222;28;20474;-61
2022/06/04 05:46:42;;;;;;;;;;;;;;;20.80;73.78;100264.75;10400149;28;19972;-62
2022/06/04 05:51:51;;;;;;;;;;;;;;;20.91;73.42;100257.19;10397386;28;19932;-63
2022/06/04 05:56:52;;;;;;;;;;;;;;;21.02;72.99;100264.81;10393180;28;20400;-63
2022/06/04 06:01:54;;;;;;;;;;;;;;;20.92;72.34;100272.38;10387889;28;19936;-63
2022/06/04 06:06:58;;;;;;;;;;;;;;;21.04;72.44;100270.84;10393016;28;20489;-62
2022/06/04 06:11:59;;;;;;;;;;;;;;;21.24;71.96;100271.03;10390893;28;19946;-61
2022/06/04 06:17:00;;;;;;;;;;;;;;;21.45;71.52;100282.91;10391303;28;19974;-62
2022/06/04 06:22:02;;;;;;;;;;;;;;;21.55;70.72;100280.75;10388172;28;19958;-62
2022/06/04 06:27:03;;;;;;;;;;;;;;;21.64;70.16;100270.63;10394520;28;20671;-63
2022/06/04 06:32:05;;;;;;;;;;;;;;;21.82;69.31;100262.00;10391829;28;20398;-63
2022/06/04 06:37:06;;;;;;;;;;;;;;;22.00;68.54;100261.50;10396231;28;19935;-62
2022/06/04 06:42:08;;;;;;;;;;;;;;;22.12;67.42;100267.22;10390559;28;19957;-65
2022/06/04 06:47:09;;;;;;;;;;;;;;;22.13;66.74;100237.19;10391806;28;19929;-63
2022/06/04 06:52:11;;;;;;;;;;;;;;;22.44;66.39;100262.19;10390498;28;19925;-62
2022/06/04 06:57:15;;;;;;;;;;;;;;;22.59;65.70;100257.47;10383985;28;19939;-62
2022/06/04 07:02:17;;;;;;;;;;;;;;;22.54;65.42;100258.06;10389829;28;19928;-62
2022/06/04 07:07:18;;;;;;;;;;;;;;;22.49;66.09;100252.44;10394841;28;20096;-61
2022/06/04 07:12:19;;;;;;;;;;;;;;;22.49;65.53;100252.44;10394622;28;20887;-61
2022/06/04 07:17:21;;;;;;;;;;;;;;;22.57;65.95;100260.38;10396650;28;19929;-61
2022/06/04 07:22:23;;;;;;;;;;;;;;;22.26;66.38;100241.84;10396018;28;19932;-62
2022/06/04 07:27:24;;;;;;;;;;;;;;;22.55;66.28;100262.47;10391904;28;19932;-62
2022/06/04 07:32:25;;;;;;;;;;;;;;;22.63;66.63;100275.00;10385351;28;19955;-61
2022/06/04 07:37:27;;;;;;;;;;;;;;;22.79;66.04;100279.25;10391365;28;20713;-61
2022/06/04 07:42:28;;;;;;;;;;;;;;;22.88;65.21;100278.03;10390087;28;19932;-64
2022/06/04 07:47:29;;;;;;;;;;;;;;;23.00;65.38;100278.28;10385910;28;19929;-61
2022/06/04 07:52:31;;;;;;;;;;;;;;;23.18;65.38;100277.72;10383961;28;19929;-61
2022/06/04 07:57:36;;;;;;;;;;;;;;;23.35;64.75;100288.19;10405650;28;19925;-61
2022/06/04 08:02:37;;;;;;;;;;;;;;;23.46;63.70;100293.84;10410556;27;19935;-62
2022/06/04 08:07:39;;;;;;;;;;;;;;;23.53;63.32;100301.19;10400177;28;19933;-60
2022/06/04 08:12:42;;;;;;;;;;;;;;;23.45;64.90;100291.34;10398384;28;19929;-60
2022/06/04 08:17:46;;;;;;;;;;;;;;;23.72;63.77;100304.94;10395931;28;20578;-61
2022/06/04 08:22:47;;;;;;;;;;;;;;;24.00;62.54;100299.31;10393869;27;19928;-62
2022/06/04 08:27:49;;;;;;;;;;;;;;;24.31;61.71;100293.19;10396269;28;19932;-62
2022/06/04 08:32:50;;;;;;;;;;;;;;;24.50;60.82;100296.03;10395233;28;19939;-61
2022/06/04 08:37:52;;;;;;;;;;;;;;;24.68;60.98;100309.84;10397967;28;20548;-61
2022/06/04 08:43:08;;;;;;;;;;;;;;;24.83;59.96;100306.00;10397405;28;20823;-62
2022/06/04 08:48:36;;;;;;;;;;;;;;;25.29;59.29;100310.38;10397235;28;19929;-61
2022/06/04 08:53:38;;;;;;;;;;;;;;;25.46;56.69;100318.91;10396829;28;19928;-62
2022/06/04 08:59:04;;;;;;;;;;;;;;;25.54;56.76;100323.25;10422152;28;19933;-62
2022/06/04 09:04:17;;;;;;;;;;;;;;;25.19;56.77;100282.78;10412746;28;20008;-62
2022/06/04 09:09:21;;;;;;;;;;;;;;;25.63;55.61;100327.38;10401944;28;20301;-63
2022/06/04 09:14:42;;;;;;;;;;;;;;;25.92;55.07;100325.03;10394932;28;19933;-63
2022/06/04 09:19:46;;;;;;;;;;;;;;;26.23;54.38;100323.31;10396755;28;20462;-62
2022/06/04 09:24:48;;;;;;;;;;;;;;;26.24;52.12;100322.22;10400721;28;20702;-63
2022/06/04 09:30:01;;;;;;;;;;;;;;;26.45;53.04;100323.69;10395785;27;20022;-63
2022/06/04 09:35:03;;;;;;;;;;;;;;;26.65;53.04;100328.94;10387264;28;21300;-62
2022/06/04 09:40:06;;;;;;;;;;;;;;;26.70;53.08;100331.84;10393966;28;19924;-61
2022/06/04 09:45:18;;;;;;;;;;;;;;;26.22;53.86;100329.81;10404088;28;20015;-61
2022/06/04 09:50:22;;;;;;;;;;;;;;;26.62;52.17;100329.41;10388484;28;19929;-61
2022/06/04 09:55:25;;;;;;;;;;;;;;;26.80;51.01;100326.69;10383901;28;19982;-61
2022/06/04 10:00:37;;;;;;;;;;;;;;;26.83;51.76;100319.09;10377432;28;20764;-62
2022/06/04 10:05:47;;;;;;;;;;;;;;;26.69;51.75;100332.88;10392292;28;19933;-63
2022/06/04 10:10:49;;;;;;;;;;;;;;;26.44;52.70;100328.31;10392490;28;19988;-64
2022/06/04 10:15:50;;;;;;;;;;;;;;;26.84;51.04;100337.13;10393090;28;21211;-64
2022/06/04 10:21:01;;;;;;;;;;;;;;;27.26;49.99;100329.00;10393334;28;20015;-63
2022/06/04 10:26:07;;;;;;;;;;;;;;;27.42;49.05;100325.66;10391153;28;19928;-63
2022/06/04 10:31:15;;;;;;;;;;;;;;;27.48;48.27;100327.44;10391406;28;19936;-64
2022/06/04 10:36:25;;;;;;;;;;;;;;;27.55;48.14;100337.44;10391327;28;19932;-64
2022/06/04 10:41:36;;;;;;;;;;;;;;;27.50;50.11;100335.41;10385519;28;19933;-64
2022/06/04 10:46:37;;;;;;;;;;;;;;;28.11;48.58;100341.59;10387264;28;20475;-63
2022/06/04 10:51:48;;;;;;;;;;;;;;;28.39;47.05;100340.06;10390478;28;20092;-62
2022/06/04 10:56:56;;;;;;;;;;;;;;;28.53;47.18;100344.19;10394683;28;20115;-62
2022/06/04 11:02:14;;;;;;;;;;;;;;;28.71;46.01;100356.09;10392757;28;19987;-63
2022/06/04 11:07:23;;;;;;;;;;;;;;;28.84;45.67;100350.34;10393223;28;20039;-63
2022/06/04 11:12:27;;;;;;;;;;;;;;;29.26;43.38;100341.88;10391421;28;20567;-62
2022/06/04 11:17:39;;;;;;;;;;;;;;;29.35;42.54;100339.59;10390384;28;24184;-63
2022/06/04 11:22:51;;;;;;;;;;;;;;;29.44;42.57;100342.75;10392534;28;20351;-65
2022/06/04 11:28:05;;;;;;;;;;;;;;;29.48;42.08;100335.69;10393173;28;19936;-63
2022/06/04 11:33:19;;;;;;;;;;;;;;;29.76;40.77;100326.56;10390578;28;19954;-63
2022/06/04 11:38:30;;;;;;;;;;;;;;;29.80;40.87;100329.66;10388872;28;19939;-62
2022/06/04 11:43:51;;;;;;;;;;;;;;;29.83;40.10;100326.44;10387666;28;19981;-61
2022/06/04 11:48:55;;;;;;;;;;;;;;;29.90;37.63;100335.31;10388785;28;19929;-61
2022/06/04 11:54:15;;;;;;;;;;;;;;;29.71;38.42;100331.13;10400133;28;19933;-61
2022/06/04 11:59:30;;;;;;;;;;;;;;;29.70;37.20;100335.78;10399118;28;19939;-61
2022/06/04 12:04:40;;;;;;;;;;;;;;;29.61;38.35;100329.88;10389043;28;20071;-62
2022/06/04 12:09:45;;;;;;;;;;;;;;;29.96;38.18;100325.25;10389718;28;20344;-64
2022/06/04 12:14:52;;;;;;;;;;;;;;;30.39;38.09;100320.13;10387880;28;19933;-63
2022/06/04 12:25:17;;;;;;;;;;;;;;;30.06;37.29;100310.88;10385139;28;20405;-63
2022/06/04 12:30:38;;;;;;;;;;;;;;;29.72;37.78;100306.19;10390194;28;20320;-62
2022/06/04 12:35:39;;;;;;;;;;;;;;;29.74;38.37;100303.19;10390227;28;20004;-62
2022/06/04 12:40:41;;;;;;;;;;;;;;;29.56;39.33;100307.88;10396573;28;20960;-62
2022/06/04 12:45:47;;;;;;;;;;;;;;;29.66;39.30;100303.63;10398466;28;19932;-61
2022/06/04 12:50:51;;;;;;;;;;;;;;;29.77;39.73;100313.66;10404683;28;19996;-63
2022/06/04 12:55:54;;;;;;;;;;;;;;;29.74;39.29;100308.69;10408379;28;19928;-63
2022/06/04 13:01:04;;;;;;;;;;;;;;;29.27;39.51;100313.41;10398931;28;19965;-63
2022/06/04 13:06:12;;;;;;;;;;;;;;;29.09;40.20;100310.81;10399802;28;19940;-67
2022/06/04 13:11:17;;;;;;;;;;;;;;;29.00;39.85;100310.38;10399695;28;19951;-64
2022/06/04 13:16:20;;;;;;;;;;;;;;;29.06;39.76;100314.06;10396007;28;19933;-63
2022/06/04 13:21:22;;;;;;;;;;;;;;;28.86;40.52;100315.31;10397570;28;20672;-62
2022/06/04 13:26:31;;;;;;;;;;;;;;;28.68;39.08;100330.03;10399236;28;19932;-62
2022/06/04 13:31:33;;;;;;;;;;;;;;;28.61;40.76;100320.28;10390372;28;20013;-63
2022/06/04 13:36:35;;;;;;;;;;;;;;;28.71;40.78;100312.28;10390615;28;19932;-62
2022/06/04 13:47:06;;;;;;;;;;;;;;;28.40;41.07;100319.81;10387511;28;20451;-61
2022/06/04 13:52:15;;;;;;;;;;;;;;;28.51;41.19;100318.97;10386505;28;19982;-61
2022/06/04 13:57:19;;;;;;;;;;;;;;;28.50;41.05;100325.50;10388231;28;19929;-62
2022/06/04 14:02:23;;;;;;;;;;;;;;;28.23;40.90;100313.41;10391235;28;20354;-61
2022/06/04 14:07:31;;;;;;;;;;;;;;;28.21;41.54;100319.94;10392493;28;19933;-62
2022/06/04 14:12:32;;;;;;;;;;;;;;;28.26;41.42;100321.16;10395962;28;19933;-62
2022/06/04 14:17:58;;;;;;;;;;;;;;;28.28;40.76;100329.94;10392253;28;19951;-62
2022/06/04 14:23:17;;;;;;;;;;;;;;;28.02;41.02;100324.69;10385945;28;19939;-62
2022/06/04 14:28:22;;;;;;;;;;;;;;;27.98;39.84;100323.53;10386999;28;20404;-63
2022/06/04 14:33:24;;;;;;;;;;;;;;;27.82;40.90;100322.28;10395360;28;19929;-63
2022/06/04 14:38:26;;;;;;;;;;;;;;;27.87;41.04;100316.94;10389108;28;19929;-63
2022/06/04 14:43:30;;;;;;;;;;;;;;;27.79;40.88;100314.56;10384945;28;19929;-63
2022/06/04 14:48:47;;;;;;;;;;;;;;;27.62;41.14;100308.09;10381536;28;19952;-62
2022/06/04 14:53:49;;;;;;;;;;;;;;;27.63;41.74;100317.97;10384472;28;20024;-62
2022/06/04 14:59:09;;;;;;;;;;;;;;;27.77;41.51;100307.66;10386870;28;20145;-62
2022/06/04 15:04:15;;;;;;;;;;;;;;;27.81;40.56;100309.69;10386991;28;19939;-62
2022/06/04 15:09:29;;;;;;;;;;;;;;;27.81;40.28;100304.19;10385817;28;19967;-62
2022/06/04 15:14:49;;;;;;;;;;;;;;;27.90;40.48;100301.97;10387897;28;19936;-62
2022/06/04 15:19:50;;;;;;;;;;;;;;;27.75;41.80;100296.13;10388046;28;19948;-61
2022/06/04 15:24:54;;;;;;;;;;;;;;;27.84;41.66;100290.06;10387822;28;19935;-62
2022/06/04 15:35:20;;;;;;;;;;;;;;;27.87;39.96;100295.03;10387072;28;19940;-62
2022/06/04 15:40:26;;;;;;;;;;;;;;;27.52;40.55;100267.69;10386251;28;20019;-62
2022/06/04 15:45:35;;;;;;;;;;;;;;;27.69;39.64;100284.22;10396248;28;19935;-62
2022/06/04 15:56:16;;;;;;;;;;;;;;;27.32;40.33;100284.34;10385849;28;19955;-62
2022/06/04 16:01:20;;;;;;;;;;;;;;;27.36;40.55;100269.19;10387291;28;20131;-63
2022/06/04 16:06:23;;;;;;;;;;;;;;;27.37;40.58;100275.47;10389837;28;20767;-65
2022/06/04 16:11:29;;;;;;;;;;;;;;;27.33;41.41;100286.06;10388513;28;19951;-63
2022/06/04 16:16:46;;;;;;;;;;;;;;;27.48;42.22;100278.25;10405388;28;19979;-63
2022/06/04 16:21:59;;;;;;;;;;;;;;;27.61;42.14;100282.69;10391556;28;19960;-63
2022/06/04 16:27:02;;;;;;;;;;;;;;;27.68;40.99;100274.34;10396998;28;19967;-63
2022/06/04 16:32:03;;;;;;;;;;;;;;;27.51;41.45;100276.94;10396553;28;20028;-63
2022/06/04 16:37:05;;;;;;;;;;;;;;;27.29;41.03;100273.91;10396785;28;19999;-63
2022/06/04 16:42:20;;;;;;;;;;;;;;;27.11;41.13;100267.44;10406547;28;20580;-61
2022/06/04 16:47:27;;;;;;;;;;;;;;;26.93;41.28;100264.75;10398166;28;19929;-63
2022/06/04 16:52:40;;;;;;;;;;;;;;;26.81;41.37;100262.81;10395402;28;20409;-62
2022/06/04 16:57:41;;;;;;;;;;;;;;;26.80;41.64;100255.69;10394195;28;20463;-63
2022/06/04 17:02:53;;;;;;;;;;;;;;;26.80;41.29;100249.41;10394242;28;20326;-63
2022/06/04 17:07:57;;;;;;;;;;;;;;;26.79;41.77;100259.47;10397798;28;20410;-62
2022/06/04 17:13:13;;;;;;;;;;;;;;;26.77;41.60;100244.41;10392329;28;20532;-62
2022/06/04 17:18:20;;;;;;;;;;;;;;;26.77;41.96;100255.31;10396711;28;20027;-63
2022/06/04 17:23:26;;;;;;;;;;;;;;;26.74;42.14;100251.16;10394911;28;19990;-63
2022/06/04 17:28:33;;;;;;;;;;;;;;;26.72;42.79;100250.56;10401243;28;19932;-63
2022/06/04 17:33:57;;;;;;;;;;;;;;;26.83;42.64;100265.31;10391374;28;19936;-63
2022/06/04 17:39:09;;;;;;;;;;;;;;;26.83;43.11;100259.00;10391404;28;20039;-63
2022/06/04 17:44:10;;;;;;;;;;;;;;;26.71;43.15;100262.53;10393665;28;19925;-63
2022/06/04 17:49:12;;;;;;;;;;;;;;;26.56;43.68;100264.81;10393281;28;19933;-63
2022/06/04 17:54:14;;;;;;;;;;;;;;;26.46;43.87;100268.88;10390986;28;19929;-63
2022/06/04 17:59:15;;;;;;;;;;;;;;;26.34;44.31;100265.25;10392823;28;19929;-63
2022/06/04 18:04:16;;;;;;;;;;;;;;;26.25;44.65;100272.06;10403787;28;19929;-63
2022/06/04 18:09:17;;;;;;;;;;;;;;;26.14;44.92;100272.81;10400789;28;19935;-63
2022/06/04 18:14:19;;;;;;;;;;;;;;;26.06;45.06;100272.06;10400332;28;19984;-64
2022/06/04 18:19:20;;;;;;;;;;;;;;;25.97;45.71;100270.63;10393132;28;19928;-63
2022/06/04 18:24:21;;;;;;;;;;;;;;;25.87;45.92;100270.34;10387893;28;19939;-62
2022/06/04 18:29:23;;;;;;;;;;;;;;;25.80;46.22;100281.28;10387747;28;19929;-62
2022/06/04 18:34:24;;;;;;;;;;;;;;;25.72;46.59;100287.88;10391855;28;19929;-62
2022/06/04 18:39:26;;;;;;;;;;;;;;;25.64;46.75;100285.44;10396022;28;19963;-62
2022/06/04 18:55:08;;;;;;;;;;;;;;;25.46;47.08;100293.53;10393657;28;20072;-61
2022/06/04 19:00:10;;;;;;;;;;;;;;;25.35;46.83;100295.91;10387357;28;19929;-63
2022/06/04 19:05:11;;;;;;;;;;;;;;;25.27;47.81;100301.59;10390898;28;20012;-62
2022/06/04 19:15:48;;;;;;;;;;;;;;;25.09;48.33;100305.06;10391305;28;20419;-62
2022/06/04 19:26:10;;;;;;;;;;;;;;;24.92;49.30;100303.88;10393144;28;19929;-62
2022/06/04 19:31:11;;;;;;;;;;;;;;;24.85;49.64;100314.81;10389931;28;19940;-62
2022/06/04 19:36:13;;;;;;;;;;;;;;;24.77;49.94;100315.03;10389080;28;19943;-63
2022/06/04 19:41:14;;;;;;;;;;;;;;;24.68;50.36;100314.44;10384872;28;20019;-64
2022/06/04 19:46:16;;;;;;;;;;;;;;;24.61;50.59;100306.31;10421989;28;19929;-63
2022/06/04 19:51:17;;;;;;;;;;;;;;;24.55;51.19;100309.88;10392041;28;20002;-62
2022/06/04 19:56:20;;;;;;;;;;;;;;;24.48;51.68;100319.91;10386484;28;20394;-61
2022/06/04 20:01:22;;;;;;;;;;;;;;;24.41;52.01;100319.09;10384320;28;19939;-62
2022/06/04 20:06:28;;;;;;;;;;;;;;;24.33;51.99;100317.44;10389943;28;19929;-62
2022/06/04 20:11:31;;;;;;;;;;;;;;;24.27;52.58;100327.28;10392180;28;19939;-62
2022/06/04 20:16:32;;;;;;;;;;;;;;;24.21;52.82;100335.47;10392292;28;19991;-63
2022/06/04 20:21:34;;;;;;;;;;;;;;;24.13;53.39;100333.81;10384470;28;19932;-62
2022/06/04 20:26:35;;;;;;;;;;;;;;;24.06;53.55;100327.53;10389815;28;19936;-62
2022/06/04 20:31:37;;;;;;;;;;;;;;;23.99;53.84;100319.41;10390532;28;19982;-63
2022/06/04 20:36:39;;;;;;;;;;;;;;;23.92;54.20;100315.84;10389847;28;19932;-64
2022/06/04 20:41:40;;;;;;;;;;;;;;;23.85;54.49;100328.56;10388565;28;20417;-62
2022/06/04 20:46:41;;;;;;;;;;;;;;;23.78;54.46;100336.69;10385740;28;19933;-63
2022/06/04 20:51:46;;;;;;;;;;;;;;;23.71;54.58;100325.00;10385215;28;19947;-63
2022/06/04 20:56:48;;;;;;;;;;;;;;;23.65;54.95;100327.50;10388438;28;19933;-62
2022/06/04 21:01:49;;;;;;;;;;;;;;;23.59;54.92;100327.50;10385336;28;19933;-63
2022/06/04 21:06:51;;;;;;;;;;;;;;;23.53;55.64;100317.47;10392020;28;20044;-64
2022/06/04 21:11:54;;;;;;;;;;;;;;;23.46;55.73;100333.75;10394932;28;20412;-64
2022/06/04 21:16:55;;;;;;;;;;;;;;;23.39;55.84;100333.75;10396078;28;19931;-63
2022/06/04 21:21:57;;;;;;;;;;;;;;;23.32;56.12;100313.06;10392375;28;20509;-64
2022/06/04 21:26:58;;;;;;;;;;;;;;;23.23;56.46;100320.56;10391980;28;20069;-64
2022/06/04 21:31:59;;;;;;;;;;;;;;;23.18;56.72;100314.88;10389648;28;21136;-64
2022/06/04 21:42:21;;;;;;;;;;;;;;;23.05;57.54;100307.53;10393132;28;19935;-62
2022/06/04 21:47:22;;;;;;;;;;;;;;;23.00;57.51;100313.56;10389651;28;20638;-63
2022/06/04 21:52:23;;;;;;;;;;;;;;;22.94;57.94;100320.63;10391949;28;20609;-63
2022/06/04 21:57:25;;;;;;;;;;;;;;;22.88;58.13;100318.75;10393394;28;20679;-63
2022/06/04 22:02:26;;;;;;;;;;;;;;;22.81;58.46;100307.03;10391012;28;20631;-63
2022/06/04 22:07:28;;;;;;;;;;;;;;;22.76;59.14;100306.81;10389526;28;20020;-62
2022/06/04 22:12:29;;;;;;;;;;;;;;;22.70;59.37;100323.88;10392929;28;19929;-62
2022/06/04 22:17:30;;;;;;;;;;;;;;;22.64;59.03;100330.94;10396764;28;19929;-62
2022/06/04 22:22:33;;;;;;;;;;;;;;;22.60;59.46;100318.81;10392094;28;20373;-62
2022/06/04 22:27:34;;;;;;;;;;;;;;;22.53;59.83;100307.94;10390699;28;19936;-63
2022/06/04 22:32:36;;;;;;;;;;;;;;;22.48;60.15;100299.56;10387666;28;20546;-63
2022/06/04 22:37:37;;;;;;;;;;;;;;;22.42;60.03;100300.38;10384256;28;19929;-62
2022/06/04 22:42:38;;;;;;;;;;;;;;;22.36;60.28;100306.59;10387933;28;20012;-62
2022/06/04 22:47:40;;;;;;;;;;;;;;;22.29;60.30;100311.09;10389139;28;19986;-62
2022/06/04 22:52:41;;;;;;;;;;;;;;;22.24;60.48;100303.56;10391285;28;19932;-62
2022/06/04 22:57:42;;;;;;;;;;;;;;;22.20;60.82;100307.72;10391458;28;19931;-63
2022/06/04 23:02:44;;;;;;;;;;;;;;;22.12;60.95;100306.00;10387449;28;19968;-63
2022/06/04 23:07:45;;;;;;;;;;;;;;;22.07;61.23;100308.47;10389154;28;19929;-63
2022/06/04 23:23:35;;;;;;;;;;;;;;;21.89;61.94;100296.25;10390761;28;20011;-64
2022/06/04 23:28:39;;;;;;;;;;;;;;;21.82;62.16;100291.81;10388897;28;19964;-63
2022/06/04 23:33:40;;;;;;;;;;;;;;;21.59;62.28;100249.53;10390273;28;20780;-64
2022/06/04 23:38:43;;;;;;;;;;;;;;;21.70;62.52;100265.25;10394008;28;19936;-65
2022/06/04 23:43:45;;;;;;;;;;;;;;;21.67;62.64;100291.91;10386825;28;19935;-63
2022/06/04 23:48:48;;;;;;;;;;;;;;;21.63;62.56;100286.03;10394371;28;20422;-63
2022/06/04 23:53:49;;;;;;;;;;;;;;;21.60;62.55;100291.00;10387425;28;19925;-62
2022/06/04 23:58:51;;;;;;;;;;;;;;;21.52;62.76;100298.22;10387940;28;19925;-63
